sensor_id;sensor_type;location;lat;lon;timestamp;P1;durP1;ratioP1;P2;durP2;ratioP2
10114;SDS011;5097;43.260;27.812;2023-07-24T00:01:12;8.32;;;7.10;;
10114;SDS011;5097;43.260;27.812;2023-07-24T00:03:56;8.15;;;7.45;;
10114;SDS011;5097;43.260;27.812;2023-07-24T00:06:41;8.15;;;7.13;;
10114;SDS011;5097;43.260;27.812;2023-07-24T00:09:25;7.82;;;7.13;;
10114;SDS011;5097;43.260;27.812;2023-07-24T00:12:11;7.95;;;7.18;;
10114;SDS011;5097;43.260;27.812;2023-07-24T00:14:55;8.15;;;7.13;;
10114;SDS011;5097;43.260;27.812;2023-07-24T00:17:39;8.40;;;7.60;;
10114;SDS011;5097;43.260;27.812;2023-07-24T00:20:23;8.23;;;7.45;;
10114;SDS011;5097;43.260;27.812;2023-07-24T00:23:08;7.40;;;6.80;;
10114;SDS011;5097;43.260;27.812;2023-07-24T00:25:52;8.20;;;7.40;;
10114;SDS011;5097;43.260;27.812;2023-07-24T00:28:38;7.57;;;6.97;;
10114;SDS011;5097;43.260;27.812;2023-07-24T00:31:22;8.52;;;7.80;;
10114;SDS011;5097;43.260;27.812;2023-07-24T00:34:06;7.95;;;7.25;;
10114;SDS011;5097;43.260;27.812;2023-07-24T00:36:50;7.40;;;6.78;;
10114;SDS011;5097;43.260;27.812;2023-07-24T00:39:34;8.20;;;7.50;;
10114;SDS011;5097;43.260;27.812;2023-07-24T00:42:18;7.75;;;7.05;;
10114;SDS011;5097;43.260;27.812;2023-07-24T00:45:05;8.70;;;7.90;;
10114;SDS011;5097;43.260;27.812;2023-07-24T00:47:51;8.60;;;7.80;;
10114;SDS011;5097;43.260;27.812;2023-07-24T00:50:35;9.18;;;8.38;;
10114;SDS011;5097;43.260;27.812;2023-07-24T00:53:21;10.45;;;9.45;;
10114;SDS011;5097;43.260;27.812;2023-07-24T00:56:05;8.88;;;7.47;;
10114;SDS011;5097;43.260;27.812;2023-07-24T00:58:50;10.35;;;9.23;;
10114;SDS011;5097;43.260;27.812;2023-07-24T01:01:37;8.90;;;7.95;;
10114;SDS011;5097;43.260;27.812;2023-07-24T01:04:25;8.20;;;7.20;;
10114;SDS011;5097;43.260;27.812;2023-07-24T01:07:09;8.75;;;7.85;;
10114;SDS011;5097;43.260;27.812;2023-07-24T01:09:54;8.68;;;7.85;;
10114;SDS011;5097;43.260;27.812;2023-07-24T01:12:39;9.52;;;8.68;;
10114;SDS011;5097;43.260;27.812;2023-07-24T01:15:30;8.38;;;7.65;;
10114;SDS011;5097;43.260;27.812;2023-07-24T01:18:17;8.10;;;7.40;;
10114;SDS011;5097;43.260;27.812;2023-07-24T01:21:07;8.27;;;7.65;;
10114;SDS011;5097;43.260;27.812;2023-07-24T01:23:55;9.15;;;8.23;;
10114;SDS011;5097;43.260;27.812;2023-07-24T01:26:47;8.55;;;7.85;;
10114;SDS011;5097;43.260;27.812;2023-07-24T01:29:31;8.32;;;7.53;;
10114;SDS011;5097;43.260;27.812;2023-07-24T01:32:15;12.68;;;8.23;;
10114;SDS011;5097;43.260;27.812;2023-07-24T01:34:59;9.35;;;8.55;;
10114;SDS011;5097;43.260;27.812;2023-07-24T01:37:44;9.27;;;8.32;;
10114;SDS011;5097;43.260;27.812;2023-07-24T01:40:30;10.20;;;8.75;;
10114;SDS011;5097;43.260;27.812;2023-07-24T01:43:17;14.00;;;8.93;;
10114;SDS011;5097;43.260;27.812;2023-07-24T01:46:01;9.52;;;8.55;;
10114;SDS011;5097;43.260;27.812;2023-07-24T01:48:45;14.30;;;12.23;;
10114;SDS011;5097;43.260;27.812;2023-07-24T01:51:29;10.27;;;8.75;;
10114;SDS011;5097;43.260;27.812;2023-07-24T01:54:14;9.85;;;7.47;;
10114;SDS011;5097;43.260;27.812;2023-07-24T01:56:58;9.18;;;8.27;;
10114;SDS011;5097;43.260;27.812;2023-07-24T01:59:44;8.23;;;7.63;;
10114;SDS011;5097;43.260;27.812;2023-07-24T02:02:28;9.18;;;8.27;;
10114;SDS011;5097;43.260;27.812;2023-07-24T02:05:12;11.98;;;10.75;;
10114;SDS011;5097;43.260;27.812;2023-07-24T02:07:57;9.95;;;9.07;;
10114;SDS011;5097;43.260;27.812;2023-07-24T02:10:41;9.68;;;8.88;;
10114;SDS011;5097;43.260;27.812;2023-07-24T02:13:26;9.45;;;8.55;;
10114;SDS011;5097;43.260;27.812;2023-07-24T02:16:12;9.68;;;8.88;;
10114;SDS011;5097;43.260;27.812;2023-07-24T02:18:56;9.77;;;8.88;;
10114;SDS011;5097;43.260;27.812;2023-07-24T02:22:00;11.95;;;9.00;;
10114;SDS011;5097;43.260;27.812;2023-07-24T02:24:44;8.80;;;8.00;;
10114;SDS011;5097;43.260;27.812;2023-07-24T02:27:30;9.55;;;8.65;;
10114;SDS011;5097;43.260;27.812;2023-07-24T02:30:17;9.45;;;8.60;;
10114;SDS011;5097;43.260;27.812;2023-07-24T02:33:03;23.30;;;9.68;;
10114;SDS011;5097;43.260;27.812;2023-07-24T02:35:49;18.95;;;8.60;;
10114;SDS011;5097;43.260;27.812;2023-07-24T02:38:35;13.68;;;9.38;;
10114;SDS011;5097;43.260;27.812;2023-07-24T02:41:22;14.70;;;10.00;;
10114;SDS011;5097;43.260;27.812;2023-07-24T02:44:06;13.38;;;8.70;;
10114;SDS011;5097;43.260;27.812;2023-07-24T02:46:50;9.52;;;8.63;;
10114;SDS011;5097;43.260;27.812;2023-07-24T02:49:35;10.57;;;9.05;;
10114;SDS011;5097;43.260;27.812;2023-07-24T02:52:20;9.52;;;8.63;;
10114;SDS011;5097;43.260;27.812;2023-07-24T02:55:06;12.93;;;9.55;;
10114;SDS011;5097;43.260;27.812;2023-07-24T02:57:51;11.27;;;9.10;;
10114;SDS011;5097;43.260;27.812;2023-07-24T03:00:35;13.93;;;9.75;;
10114;SDS011;5097;43.260;27.812;2023-07-24T03:03:19;11.77;;;10.15;;
10114;SDS011;5097;43.260;27.812;2023-07-24T03:06:05;10.43;;;9.38;;
10114;SDS011;5097;43.260;27.812;2023-07-24T03:08:49;11.57;;;10.57;;
10114;SDS011;5097;43.260;27.812;2023-07-24T03:11:33;12.35;;;11.15;;
10114;SDS011;5097;43.260;27.812;2023-07-24T03:14:17;17.23;;;12.02;;
10114;SDS011;5097;43.260;27.812;2023-07-24T03:17:02;16.67;;;14.85;;
10114;SDS011;5097;43.260;27.812;2023-07-24T03:19:47;17.65;;;15.23;;
10114;SDS011;5097;43.260;27.812;2023-07-24T03:22:33;18.10;;;15.80;;
10114;SDS011;5097;43.260;27.812;2023-07-24T03:25:17;21.02;;;17.10;;
10114;SDS011;5097;43.260;27.812;2023-07-24T03:28:01;21.05;;;15.13;;
10114;SDS011;5097;43.260;27.812;2023-07-24T03:30:46;16.33;;;13.32;;
10114;SDS011;5097;43.260;27.812;2023-07-24T03:33:31;19.40;;;14.93;;
10114;SDS011;5097;43.260;27.812;2023-07-24T03:36:16;17.73;;;15.32;;
10114;SDS011;5097;43.260;27.812;2023-07-24T03:39:01;15.35;;;13.93;;
10114;SDS011;5097;43.260;27.812;2023-07-24T03:41:45;13.77;;;12.48;;
10114;SDS011;5097;43.260;27.812;2023-07-24T03:44:30;12.27;;;11.18;;
10114;SDS011;5097;43.260;27.812;2023-07-24T03:47:15;12.07;;;10.82;;
10114;SDS011;5097;43.260;27.812;2023-07-24T03:50:07;17.33;;;12.00;;
10114;SDS011;5097;43.260;27.812;2023-07-24T03:52:52;17.75;;;12.82;;
10114;SDS011;5097;43.260;27.812;2023-07-24T03:55:38;16.33;;;13.52;;
10114;SDS011;5097;43.260;27.812;2023-07-24T03:58:26;15.95;;;13.63;;
10114;SDS011;5097;43.260;27.812;2023-07-24T04:01:11;13.57;;;12.23;;
10114;SDS011;5097;43.260;27.812;2023-07-24T04:03:55;13.77;;;12.20;;
10114;SDS011;5097;43.260;27.812;2023-07-24T04:06:40;16.25;;;12.73;;
10114;SDS011;5097;43.260;27.812;2023-07-24T04:09:24;14.30;;;12.57;;
10114;SDS011;5097;43.260;27.812;2023-07-24T04:12:10;18.88;;;12.93;;
10114;SDS011;5097;43.260;27.812;2023-07-24T04:14:55;13.95;;;12.38;;
10114;SDS011;5097;43.260;27.812;2023-07-24T04:17:40;11.60;;;9.80;;
10114;SDS011;5097;43.260;27.812;2023-07-24T04:20:25;10.00;;;9.02;;
10114;SDS011;5097;43.260;27.812;2023-07-24T04:23:10;9.70;;;8.90;;
10114;SDS011;5097;43.260;27.812;2023-07-24T04:25:54;9.50;;;8.70;;
10114;SDS011;5097;43.260;27.812;2023-07-24T04:28:39;11.35;;;10.25;;
10114;SDS011;5097;43.260;27.812;2023-07-24T04:31:23;16.00;;;13.77;;
10114;SDS011;5097;43.260;27.812;2023-07-24T04:34:07;16.83;;;15.23;;
10114;SDS011;5097;43.260;27.812;2023-07-24T04:36:51;15.80;;;14.18;;
10114;SDS011;5097;43.260;27.812;2023-07-24T04:39:38;17.27;;;15.68;;
10114;SDS011;5097;43.260;27.812;2023-07-24T04:42:22;13.68;;;12.27;;
10114;SDS011;5097;43.260;27.812;2023-07-24T04:45:08;11.55;;;10.48;;
10114;SDS011;5097;43.260;27.812;2023-07-24T04:47:53;11.63;;;10.63;;
10114;SDS011;5097;43.260;27.812;2023-07-24T04:50:37;11.07;;;10.15;;
10114;SDS011;5097;43.260;27.812;2023-07-24T04:53:21;10.80;;;9.98;;
10114;SDS011;5097;43.260;27.812;2023-07-24T04:56:05;13.10;;;11.20;;
10114;SDS011;5097;43.260;27.812;2023-07-24T04:58:49;10.57;;;9.57;;
10114;SDS011;5097;43.260;27.812;2023-07-24T05:01:35;15.88;;;11.20;;
10114;SDS011;5097;43.260;27.812;2023-07-24T05:04:19;10.88;;;9.80;;
10114;SDS011;5097;43.260;27.812;2023-07-24T05:07:04;10.82;;;9.73;;
10114;SDS011;5097;43.260;27.812;2023-07-24T05:09:48;13.32;;;10.32;;
10114;SDS011;5097;43.260;27.812;2023-07-24T05:12:32;11.27;;;10.05;;
10114;SDS011;5097;43.260;27.812;2023-07-24T05:15:16;12.43;;;9.10;;
10114;SDS011;5097;43.260;27.812;2023-07-24T05:18:01;10.00;;;9.05;;
10114;SDS011;5097;43.260;27.812;2023-07-24T05:20:45;8.98;;;8.18;;
10114;SDS011;5097;43.260;27.812;2023-07-24T05:23:30;10.43;;;8.48;;
10114;SDS011;5097;43.260;27.812;2023-07-24T05:26:14;8.05;;;7.32;;
10114;SDS011;5097;43.260;27.812;2023-07-24T05:28:58;11.93;;;7.57;;
10114;SDS011;5097;43.260;27.812;2023-07-24T05:31:43;7.50;;;6.82;;
10114;SDS011;5097;43.260;27.812;2023-07-24T05:34:28;7.95;;;7.15;;
10114;SDS011;5097;43.260;27.812;2023-07-24T05:37:12;7.18;;;6.30;;
10114;SDS011;5097;43.260;27.812;2023-07-24T05:39:58;7.47;;;6.50;;
10114;SDS011;5097;43.260;27.812;2023-07-24T05:42:42;6.90;;;6.20;;
10114;SDS011;5097;43.260;27.812;2023-07-24T05:45:26;8.07;;;6.38;;
10114;SDS011;5097;43.260;27.812;2023-07-24T05:48:10;8.68;;;7.40;;
10114;SDS011;5097;43.260;27.812;2023-07-24T05:50:56;11.57;;;6.88;;
10114;SDS011;5097;43.260;27.812;2023-07-24T05:53:40;7.07;;;6.47;;
10114;SDS011;5097;43.260;27.812;2023-07-24T05:56:24;6.80;;;6.20;;
10114;SDS011;5097;43.260;27.812;2023-07-24T05:59:09;7.47;;;6.35;;
10114;SDS011;5097;43.260;27.812;2023-07-24T06:01:53;8.13;;;6.40;;
10114;SDS011;5097;43.260;27.812;2023-07-24T06:04:37;7.80;;;6.97;;
10114;SDS011;5097;43.260;27.812;2023-07-24T06:07:22;6.90;;;6.32;;
10114;SDS011;5097;43.260;27.812;2023-07-24T06:10:07;7.60;;;6.03;;
10114;SDS011;5097;43.260;27.812;2023-07-24T06:12:51;6.55;;;5.90;;
10114;SDS011;5097;43.260;27.812;2023-07-24T06:15:35;6.60;;;5.90;;
10114;SDS011;5097;43.260;27.812;2023-07-24T06:18:19;9.43;;;6.13;;
10114;SDS011;5097;43.260;27.812;2023-07-24T06:21:03;5.85;;;5.35;;
10114;SDS011;5097;43.260;27.812;2023-07-24T06:23:49;14.05;;;6.05;;
10114;SDS011;5097;43.260;27.812;2023-07-24T06:26:33;6.22;;;4.93;;
10114;SDS011;5097;43.260;27.812;2023-07-24T06:29:17;5.43;;;4.88;;
10114;SDS011;5097;43.260;27.812;2023-07-24T06:32:01;5.15;;;4.68;;
10114;SDS011;5097;43.260;27.812;2023-07-24T06:34:45;5.05;;;4.65;;
10114;SDS011;5097;43.260;27.812;2023-07-24T06:37:29;6.57;;;5.22;;
10114;SDS011;5097;43.260;27.812;2023-07-24T06:40:14;4.65;;;4.25;;
10114;SDS011;5097;43.260;27.812;2023-07-24T06:43:00;57.20;;;7.50;;
10114;SDS011;5097;43.260;27.812;2023-07-24T06:45:44;6.57;;;4.45;;
10114;SDS011;5097;43.260;27.812;2023-07-24T06:48:28;4.75;;;4.43;;
10114;SDS011;5097;43.260;27.812;2023-07-24T06:51:12;4.88;;;3.78;;
10114;SDS011;5097;43.260;27.812;2023-07-24T06:53:56;4.28;;;3.90;;
10114;SDS011;5097;43.260;27.812;2023-07-24T06:56:41;4.15;;;3.85;;
10114;SDS011;5097;43.260;27.812;2023-07-24T06:59:25;4.28;;;3.88;;
10114;SDS011;5097;43.260;27.812;2023-07-24T07:02:09;5.15;;;4.75;;
10114;SDS011;5097;43.260;27.812;2023-07-24T07:04:53;4.68;;;4.28;;
10114;SDS011;5097;43.260;27.812;2023-07-24T07:07:37;5.65;;;4.00;;
10114;SDS011;5097;43.260;27.812;2023-07-24T07:10:22;5.88;;;3.88;;
10114;SDS011;5097;43.260;27.812;2023-07-24T07:13:08;5.18;;;4.20;;
10114;SDS011;5097;43.260;27.812;2023-07-24T07:15:52;5.30;;;4.00;;
10114;SDS011;5097;43.260;27.812;2023-07-24T07:18:36;6.25;;;3.75;;
10114;SDS011;5097;43.260;27.812;2023-07-24T07:21:20;5.90;;;4.00;;
10114;SDS011;5097;43.260;27.812;2023-07-24T07:24:05;5.50;;;3.80;;
10114;SDS011;5097;43.260;27.812;2023-07-24T07:26:49;4.47;;;3.90;;
10114;SDS011;5097;43.260;27.812;2023-07-24T07:29:34;3.80;;;3.50;;
10114;SDS011;5097;43.260;27.812;2023-07-24T07:32:19;4.43;;;4.03;;
10114;SDS011;5097;43.260;27.812;2023-07-24T07:35:03;4.05;;;3.65;;
10114;SDS011;5097;43.260;27.812;2023-07-24T07:37:48;4.55;;;4.15;;
10114;SDS011;5097;43.260;27.812;2023-07-24T07:40:32;4.15;;;3.53;;
10114;SDS011;5097;43.260;27.812;2023-07-24T07:43:16;3.35;;;3.10;;
10114;SDS011;5097;43.260;27.812;2023-07-24T07:46:01;3.72;;;3.20;;
10114;SDS011;5097;43.260;27.812;2023-07-24T07:48:46;3.90;;;3.58;;
10114;SDS011;5097;43.260;27.812;2023-07-24T07:51:31;3.47;;;3.05;;
10114;SDS011;5097;43.260;27.812;2023-07-24T07:54:15;4.25;;;3.83;;
10114;SDS011;5097;43.260;27.812;2023-07-24T07:56:59;4.10;;;3.08;;
10114;SDS011;5097;43.260;27.812;2023-07-24T07:59:43;3.50;;;3.20;;
10114;SDS011;5097;43.260;27.812;2023-07-24T08:02:29;3.88;;;3.58;;
10114;SDS011;5097;43.260;27.812;2023-07-24T08:05:14;3.38;;;3.08;;
10114;SDS011;5097;43.260;27.812;2023-07-24T08:08:03;5.13;;;3.47;;
10114;SDS011;5097;43.260;27.812;2023-07-24T08:10:47;3.78;;;3.47;;
10114;SDS011;5097;43.260;27.812;2023-07-24T08:13:31;5.45;;;3.50;;
10114;SDS011;5097;43.260;27.812;2023-07-24T08:16:16;3.92;;;3.58;;
10114;SDS011;5097;43.260;27.812;2023-07-24T08:19:03;4.97;;;3.17;;
10114;SDS011;5097;43.260;27.812;2023-07-24T08:21:47;4.50;;;3.55;;
10114;SDS011;5097;43.260;27.812;2023-07-24T08:24:33;4.63;;;3.83;;
10114;SDS011;5097;43.260;27.812;2023-07-24T08:27:17;4.50;;;3.22;;
10114;SDS011;5097;43.260;27.812;2023-07-24T08:30:01;7.93;;;3.70;;
10114;SDS011;5097;43.260;27.812;2023-07-24T08:32:47;3.83;;;3.53;;
10114;SDS011;5097;43.260;27.812;2023-07-24T08:35:33;4.38;;;3.70;;
10114;SDS011;5097;43.260;27.812;2023-07-24T08:38:18;4.10;;;3.75;;
10114;SDS011;5097;43.260;27.812;2023-07-24T08:41:02;4.63;;;4.13;;
10114;SDS011;5097;43.260;27.812;2023-07-24T08:43:47;7.25;;;3.53;;
10114;SDS011;5097;43.260;27.812;2023-07-24T08:46:35;3.90;;;3.20;;
10114;SDS011;5097;43.260;27.812;2023-07-24T08:49:21;6.40;;;4.10;;
10114;SDS011;5097;43.260;27.812;2023-07-24T08:52:07;4.30;;;3.90;;
10114;SDS011;5097;43.260;27.812;2023-07-24T08:55:08;4.03;;;3.67;;
10114;SDS011;5097;43.260;27.812;2023-07-24T08:57:53;6.82;;;3.63;;
10114;SDS011;5097;43.260;27.812;2023-07-24T09:00:37;6.80;;;3.78;;
10114;SDS011;5097;43.260;27.812;2023-07-24T09:03:22;4.38;;;3.92;;
10114;SDS011;5097;43.260;27.812;2023-07-24T09:06:07;4.00;;;3.70;;
10114;SDS011;5097;43.260;27.812;2023-07-24T09:08:53;3.80;;;3.40;;
10114;SDS011;5097;43.260;27.812;2023-07-24T09:11:45;3.70;;;3.40;;
10114;SDS011;5097;43.260;27.812;2023-07-24T09:14:29;3.95;;;3.65;;
10114;SDS011;5097;43.260;27.812;2023-07-24T09:17:14;4.22;;;3.80;;
10114;SDS011;5097;43.260;27.812;2023-07-24T09:19:58;3.90;;;3.05;;
10114;SDS011;5097;43.260;27.812;2023-07-24T09:22:49;5.72;;;3.50;;
10114;SDS011;5097;43.260;27.812;2023-07-24T09:25:55;4.13;;;3.22;;
10114;SDS011;5097;43.260;27.812;2023-07-24T09:28:39;3.40;;;2.92;;
10114;SDS011;5097;43.260;27.812;2023-07-24T09:31:33;3.70;;;3.10;;
10114;SDS011;5097;43.260;27.812;2023-07-24T09:34:18;3.10;;;2.90;;
10114;SDS011;5097;43.260;27.812;2023-07-24T09:37:03;3.42;;;3.10;;
10114;SDS011;5097;43.260;27.812;2023-07-24T09:39:47;4.65;;;3.00;;
10114;SDS011;5097;43.260;27.812;2023-07-24T09:42:33;9.25;;;3.42;;
10114;SDS011;5097;43.260;27.812;2023-07-24T09:45:34;3.75;;;3.30;;
10114;SDS011;5097;43.260;27.812;2023-07-24T09:48:27;3.97;;;3.00;;
10114;SDS011;5097;43.260;27.812;2023-07-24T09:51:14;3.28;;;3.00;;
10114;SDS011;5097;43.260;27.812;2023-07-24T09:54:00;5.93;;;3.08;;
10114;SDS011;5097;43.260;27.812;2023-07-24T09:56:50;6.25;;;2.90;;
10114;SDS011;5097;43.260;27.812;2023-07-24T09:59:53;3.80;;;3.20;;
10114;SDS011;5097;43.260;27.812;2023-07-24T10:02:40;5.88;;;3.05;;
10114;SDS011;5097;43.260;27.812;2023-07-24T10:05:25;3.50;;;3.20;;
10114;SDS011;5097;43.260;27.812;2023-07-24T10:08:09;4.20;;;2.92;;
10114;SDS011;5097;43.260;27.812;2023-07-24T10:10:53;3.53;;;3.17;;
10114;SDS011;5097;43.260;27.812;2023-07-24T10:13:37;3.55;;;3.22;;
10114;SDS011;5097;43.260;27.812;2023-07-24T10:16:24;3.60;;;3.33;;
10114;SDS011;5097;43.260;27.812;2023-07-24T10:19:12;3.63;;;3.30;;
10114;SDS011;5097;43.260;27.812;2023-07-24T10:21:58;4.35;;;3.40;;
10114;SDS011;5097;43.260;27.812;2023-07-24T10:24:43;3.50;;;3.25;;
10114;SDS011;5097;43.260;27.812;2023-07-24T10:27:27;3.20;;;2.95;;
10114;SDS011;5097;43.260;27.812;2023-07-24T10:30:11;5.50;;;3.20;;
10114;SDS011;5097;43.260;27.812;2023-07-24T10:33:18;4.50;;;3.10;;
10114;SDS011;5097;43.260;27.812;2023-07-24T10:36:04;3.83;;;3.20;;
10114;SDS011;5097;43.260;27.812;2023-07-24T10:38:52;3.83;;;3.30;;
10114;SDS011;5097;43.260;27.812;2023-07-24T10:41:39;3.67;;;3.25;;
10114;SDS011;5097;43.260;27.812;2023-07-24T10:44:29;4.00;;;3.55;;
10114;SDS011;5097;43.260;27.812;2023-07-24T10:47:14;3.70;;;3.30;;
10114;SDS011;5097;43.260;27.812;2023-07-24T10:50:00;5.28;;;3.53;;
10114;SDS011;5097;43.260;27.812;2023-07-24T10:52:47;4.93;;;3.60;;
10114;SDS011;5097;43.260;27.812;2023-07-24T10:55:31;3.00;;;2.80;;
10114;SDS011;5097;43.260;27.812;2023-07-24T10:58:15;3.40;;;3.00;;
10114;SDS011;5097;43.260;27.812;2023-07-24T11:01:00;4.10;;;3.00;;
10114;SDS011;5097;43.260;27.812;2023-07-24T11:03:48;3.53;;;3.00;;
10114;SDS011;5097;43.260;27.812;2023-07-24T11:06:35;3.67;;;3.28;;
10114;SDS011;5097;43.260;27.812;2023-07-24T11:09:19;4.28;;;3.00;;
10114;SDS011;5097;43.260;27.812;2023-07-24T11:12:10;3.80;;;3.08;;
10114;SDS011;5097;43.260;27.812;2023-07-24T11:14:57;3.17;;;2.97;;
10114;SDS011;5097;43.260;27.812;2023-07-24T11:17:46;3.67;;;3.22;;
10114;SDS011;5097;43.260;27.812;2023-07-24T11:20:31;3.13;;;2.85;;
10114;SDS011;5097;43.260;27.812;2023-07-24T11:23:17;3.13;;;2.88;;
10114;SDS011;5097;43.260;27.812;2023-07-24T11:26:03;3.60;;;3.30;;
10114;SDS011;5097;43.260;27.812;2023-07-24T11:28:49;4.10;;;3.10;;
10114;SDS011;5097;43.260;27.812;2023-07-24T11:31:36;2.97;;;2.78;;
10114;SDS011;5097;43.260;27.812;2023-07-24T11:34:20;4.40;;;3.20;;
10114;SDS011;5097;43.260;27.812;2023-07-24T11:37:05;3.70;;;3.40;;
10114;SDS011;5097;43.260;27.812;2023-07-24T11:39:58;3.67;;;3.13;;
10114;SDS011;5097;43.260;27.812;2023-07-24T11:42:47;3.20;;;2.90;;
10114;SDS011;5097;43.260;27.812;2023-07-24T11:45:39;2.80;;;2.60;;
10114;SDS011;5097;43.260;27.812;2023-07-24T11:48:25;6.20;;;3.00;;
10114;SDS011;5097;43.260;27.812;2023-07-24T11:51:09;3.20;;;2.90;;
10114;SDS011;5097;43.260;27.812;2023-07-24T11:54:04;3.88;;;3.10;;
10114;SDS011;5097;43.260;27.812;2023-07-24T11:56:51;3.25;;;3.05;;
10114;SDS011;5097;43.260;27.812;2023-07-24T11:59:37;5.35;;;3.65;;
10114;SDS011;5097;43.260;27.812;2023-07-24T12:02:22;3.42;;;3.13;;
10114;SDS011;5097;43.260;27.812;2023-07-24T12:05:06;3.97;;;3.20;;
10114;SDS011;5097;43.260;27.812;2023-07-24T12:07:54;4.80;;;3.03;;
10114;SDS011;5097;43.260;27.812;2023-07-24T12:10:38;3.67;;;3.38;;
10114;SDS011;5097;43.260;27.812;2023-07-24T12:13:24;3.70;;;3.40;;
10114;SDS011;5097;43.260;27.812;2023-07-24T12:16:08;3.65;;;3.35;;
10114;SDS011;5097;43.260;27.812;2023-07-24T12:18:52;5.07;;;3.40;;
10114;SDS011;5097;43.260;27.812;2023-07-24T12:21:36;4.13;;;3.45;;
10114;SDS011;5097;43.260;27.812;2023-07-24T12:24:21;6.65;;;3.50;;
10114;SDS011;5097;43.260;27.812;2023-07-24T12:27:05;5.15;;;3.70;;
10114;SDS011;5097;43.260;27.812;2023-07-24T12:29:51;3.60;;;3.30;;
10114;SDS011;5097;43.260;27.812;2023-07-24T12:32:35;4.50;;;3.60;;
10114;SDS011;5097;43.260;27.812;2023-07-24T12:35:20;3.75;;;3.45;;
10114;SDS011;5097;43.260;27.812;2023-07-24T12:38:04;3.63;;;3.33;;
10114;SDS011;5097;43.260;27.812;2023-07-24T12:40:48;3.70;;;3.40;;
10114;SDS011;5097;43.260;27.812;2023-07-24T12:43:32;3.75;;;3.45;;
10114;SDS011;5097;43.260;27.812;2023-07-24T12:46:18;4.13;;;3.50;;
10114;SDS011;5097;43.260;27.812;2023-07-24T12:49:02;4.03;;;3.70;;
10114;SDS011;5097;43.260;27.812;2023-07-24T12:51:46;3.75;;;3.33;;
10114;SDS011;5097;43.260;27.812;2023-07-24T12:54:31;4.03;;;3.72;;
10114;SDS011;5097;43.260;27.812;2023-07-24T12:57:35;15.32;;;3.60;;
10114;SDS011;5097;43.260;27.812;2023-07-24T13:00:19;5.53;;;3.90;;
10114;SDS011;5097;43.260;27.812;2023-07-24T13:03:05;16.00;;;4.70;;
10114;SDS011;5097;43.260;27.812;2023-07-24T13:05:49;4.57;;;3.80;;
10114;SDS011;5097;43.260;27.812;2023-07-24T13:08:33;4.80;;;3.50;;
10114;SDS011;5097;43.260;27.812;2023-07-24T13:11:17;5.80;;;3.60;;
10114;SDS011;5097;43.260;27.812;2023-07-24T13:14:01;4.47;;;3.50;;
10114;SDS011;5097;43.260;27.812;2023-07-24T13:16:45;5.25;;;3.35;;
10114;SDS011;5097;43.260;27.812;2023-07-24T13:19:31;3.90;;;3.53;;
10114;SDS011;5097;43.260;27.812;2023-07-24T13:22:15;4.20;;;3.78;;
10114;SDS011;5097;43.260;27.812;2023-07-24T13:24:59;4.55;;;3.60;;
10114;SDS011;5097;43.260;27.812;2023-07-24T13:27:44;5.18;;;3.90;;
10114;SDS011;5097;43.260;27.812;2023-07-24T13:30:28;9.13;;;3.95;;
10114;SDS011;5097;43.260;27.812;2023-07-24T13:33:12;5.95;;;3.47;;
10114;SDS011;5097;43.260;27.812;2023-07-24T13:35:58;5.90;;;3.53;;
10114;SDS011;5097;43.260;27.812;2023-07-24T13:38:42;4.70;;;3.30;;
10114;SDS011;5097;43.260;27.812;2023-07-24T13:41:27;4.35;;;3.58;;
10114;SDS011;5097;43.260;27.812;2023-07-24T13:44:12;6.18;;;3.40;;
10114;SDS011;5097;43.260;27.812;2023-07-24T13:46:56;4.47;;;3.10;;
10114;SDS011;5097;43.260;27.812;2023-07-24T13:49:40;6.65;;;3.38;;
10114;SDS011;5097;43.260;27.812;2023-07-24T13:52:25;6.35;;;3.40;;
10114;SDS011;5097;43.260;27.812;2023-07-24T13:55:09;4.30;;;3.20;;
10114;SDS011;5097;43.260;27.812;2023-07-24T13:57:53;4.38;;;3.45;;
10114;SDS011;5097;43.260;27.812;2023-07-24T14:00:37;3.72;;;3.38;;
10114;SDS011;5097;43.260;27.812;2023-07-24T14:03:22;3.90;;;3.40;;
10114;SDS011;5097;43.260;27.812;2023-07-24T14:06:11;4.20;;;3.80;;
10114;SDS011;5097;43.260;27.812;2023-07-24T14:08:57;3.53;;;3.22;;
10114;SDS011;5097;43.260;27.812;2023-07-24T14:11:41;4.40;;;3.33;;
10114;SDS011;5097;43.260;27.812;2023-07-24T14:14:25;3.85;;;3.30;;
10114;SDS011;5097;43.260;27.812;2023-07-24T14:17:09;3.85;;;3.45;;
10114;SDS011;5097;43.260;27.812;2023-07-24T14:19:53;5.13;;;3.67;;
10114;SDS011;5097;43.260;27.812;2023-07-24T14:22:37;3.30;;;3.00;;
10114;SDS011;5097;43.260;27.812;2023-07-24T14:25:23;3.85;;;3.42;;
10114;SDS011;5097;43.260;27.812;2023-07-24T14:28:07;7.82;;;4.05;;
10114;SDS011;5097;43.260;27.812;2023-07-24T14:30:51;3.80;;;3.45;;
10114;SDS011;5097;43.260;27.812;2023-07-24T14:33:35;3.45;;;3.15;;
10114;SDS011;5097;43.260;27.812;2023-07-24T14:36:19;3.70;;;3.03;;
10114;SDS011;5097;43.260;27.812;2023-07-24T14:39:04;10.38;;;3.55;;
10114;SDS011;5097;43.260;27.812;2023-07-24T14:41:50;5.32;;;3.53;;
10114;SDS011;5097;43.260;27.812;2023-07-24T14:44:34;3.65;;;3.35;;
10114;SDS011;5097;43.260;27.812;2023-07-24T14:47:18;4.10;;;3.70;;
10114;SDS011;5097;43.260;27.812;2023-07-24T14:50:03;4.22;;;3.58;;
10114;SDS011;5097;43.260;27.812;2023-07-24T14:52:47;6.10;;;3.35;;
10114;SDS011;5097;43.260;27.812;2023-07-24T14:55:31;4.70;;;3.60;;
10114;SDS011;5097;43.260;27.812;2023-07-24T14:58:17;4.28;;;3.50;;
10114;SDS011;5097;43.260;27.812;2023-07-24T15:01:01;5.68;;;3.42;;
10114;SDS011;5097;43.260;27.812;2023-07-24T15:03:45;4.10;;;3.58;;
10114;SDS011;5097;43.260;27.812;2023-07-24T15:06:29;4.63;;;3.58;;
10114;SDS011;5097;43.260;27.812;2023-07-24T15:09:13;4.00;;;3.60;;
10114;SDS011;5097;43.260;27.812;2023-07-24T15:11:58;6.28;;;3.58;;
10114;SDS011;5097;43.260;27.812;2023-07-24T15:14:43;7.38;;;3.53;;
10114;SDS011;5097;43.260;27.812;2023-07-24T15:17:27;5.35;;;3.58;;
10114;SDS011;5097;43.260;27.812;2023-07-24T15:20:11;6.35;;;4.10;;
10114;SDS011;5097;43.260;27.812;2023-07-24T15:22:57;7.15;;;4.00;;
10114;SDS011;5097;43.260;27.812;2023-07-24T15:25:41;6.25;;;3.45;;
10114;SDS011;5097;43.260;27.812;2023-07-24T15:28:25;5.45;;;3.75;;
10114;SDS011;5097;43.260;27.812;2023-07-24T15:31:11;5.90;;;3.88;;
10114;SDS011;5097;43.260;27.812;2023-07-24T15:33:55;3.97;;;3.60;;
10114;SDS011;5097;43.260;27.812;2023-07-24T15:36:39;5.43;;;3.70;;
10114;SDS011;5097;43.260;27.812;2023-07-24T15:39:24;3.85;;;3.53;;
10114;SDS011;5097;43.260;27.812;2023-07-24T15:42:08;4.88;;;3.80;;
10114;SDS011;5097;43.260;27.812;2023-07-24T15:44:52;5.68;;;3.60;;
10114;SDS011;5097;43.260;27.812;2023-07-24T15:47:38;3.75;;;3.40;;
10114;SDS011;5097;43.260;27.812;2023-07-24T15:50:22;4.22;;;3.65;;
10114;SDS011;5097;43.260;27.812;2023-07-24T15:53:06;5.55;;;3.05;;
10114;SDS011;5097;43.260;27.812;2023-07-24T15:55:50;5.93;;;4.07;;
10114;SDS011;5097;43.260;27.812;2023-07-24T15:58:34;4.45;;;4.05;;
10114;SDS011;5097;43.260;27.812;2023-07-24T16:01:19;4.15;;;3.83;;
10114;SDS011;5097;43.260;27.812;2023-07-24T16:04:05;3.72;;;3.35;;
10114;SDS011;5097;43.260;27.812;2023-07-24T16:06:49;6.38;;;3.53;;
10114;SDS011;5097;43.260;27.812;2023-07-24T16:09:33;4.03;;;3.13;;
10114;SDS011;5097;43.260;27.812;2023-07-24T16:12:17;4.15;;;3.20;;
10114;SDS011;5097;43.260;27.812;2023-07-24T16:15:02;3.58;;;3.25;;
10114;SDS011;5097;43.260;27.812;2023-07-24T16:17:46;4.43;;;4.03;;
10114;SDS011;5097;43.260;27.812;2023-07-24T16:20:34;6.75;;;3.67;;
10114;SDS011;5097;43.260;27.812;2023-07-24T16:23:19;3.75;;;3.28;;
10114;SDS011;5097;43.260;27.812;2023-07-24T16:26:03;7.03;;;4.03;;
10114;SDS011;5097;43.260;27.812;2023-07-24T16:28:47;4.13;;;3.40;;
10114;SDS011;5097;43.260;27.812;2023-07-24T16:31:31;4.22;;;3.30;;